createdAt,value
2018-12-04T00:02:12.095Z,117.47
2018-12-04T00:04:42.715Z,132.07
2018-12-04T00:07:13.388Z,125.53
2018-12-04T00:09:43.875Z,117.37
2018-12-04T00:12:14.415Z,114.20
2018-12-04T00:14:45.070Z,116.20
2018-12-04T00:17:15.613Z,133.03
2018-12-04T00:19:46.128Z,145.30
2018-12-04T00:22:16.632Z,155.13
2018-12-04T00:24:47.937Z,155.67
2018-12-04T00:27:18.430Z,136.07
2018-12-04T00:29:49.011Z,140.97
2018-12-04T00:32:19.485Z,155.07
2018-12-04T00:34:50.034Z,162.80
2018-12-04T00:37:20.565Z,165.17
2018-12-04T00:39:51.085Z,172.63
2018-12-04T00:42:21.703Z,190.27
2018-12-04T00:44:52.302Z,184.73
2018-12-04T00:47:22.777Z,191.90
2018-12-04T00:49:53.316Z,203.23
2018-12-04T00:52:23.815Z,197.40
2018-12-04T00:54:56.361Z,192.23
2018-12-04T00:57:26.991Z,192.73
2018-12-04T00:59:57.566Z,213.23
2018-12-04T01:02:28.233Z,187.57
2018-12-04T01:04:59.310Z,190.60
2018-12-04T01:07:29.831Z,216.30
2018-12-04T01:10:00.407Z,211.93
2018-12-04T01:12:31.093Z,165.63
2018-12-04T01:15:01.632Z,213.17
2018-12-04T01:17:32.304Z,211.07
2018-12-04T01:20:02.821Z,237.83
2018-12-04T01:22:33.928Z,282.03
2018-12-04T01:25:06.455Z,169.63
2018-12-04T01:27:37.032Z,160.93
2018-12-04T01:30:07.588Z,149.20
2018-12-04T01:32:38.151Z,139.47
2018-12-04T01:35:08.639Z,145.87
2018-12-04T01:37:39.687Z,205.93
2018-12-04T01:40:10.855Z,283.10
2018-12-04T01:42:41.552Z,250.23
2018-12-04T01:45:12.132Z,143.23
2018-12-04T01:47:42.654Z,155.43
2018-12-04T01:50:13.587Z,151.93
2018-12-04T01:52:45.166Z,144.10
2018-12-04T01:55:15.775Z,136.23
2018-12-04T01:57:46.324Z,139.73
2018-12-04T02:00:16.827Z,131.43
2018-12-04T02:02:47.342Z,120.80
2018-12-04T02:05:17.840Z,132.17
2018-12-04T02:07:48.359Z,126.03
2018-12-04T02:10:18.881Z,117.33
2018-12-04T02:12:49.436Z,121.73
2018-12-04T02:15:19.935Z,119.70
2018-12-04T02:17:50.573Z,106.47
2018-12-04T02:20:21.048Z,108.57
2018-12-04T02:22:51.585Z,101.70
2018-12-04T02:25:23.385Z,100.97
2018-12-04T02:27:53.941Z,102.43
2018-12-04T02:30:24.492Z,110.33
2018-12-04T02:32:55.012Z,103.93
2018-12-04T02:35:26.835Z,100.70
2018-12-04T02:37:57.368Z,93.27
2018-12-04T02:40:28.010Z,89.77
2018-12-04T02:42:58.735Z,82.67
2018-12-04T02:45:29.331Z,83.07
2018-12-04T02:47:59.963Z,80.50
2018-12-04T02:50:30.527Z,84.30
2018-12-04T02:53:01.151Z,83.13
2018-12-04T02:55:31.709Z,82.03
2018-12-04T02:58:02.283Z,83.73
2018-12-04T03:00:32.803Z,85.83
2018-12-04T03:03:03.311Z,86.50
2018-12-04T03:05:35.727Z,79.67
2018-12-04T03:08:06.925Z,79.03
2018-12-04T03:10:37.910Z,82.93
2018-12-04T03:13:10.871Z,82.57
2018-12-04T03:15:43.037Z,78.80
2018-12-04T03:18:14.672Z,75.60
2018-12-04T03:20:45.423Z,85.80
2018-12-04T03:23:15.907Z,83.77
2018-12-04T03:25:46.414Z,79.07
2018-12-04T03:28:17.107Z,71.93
2018-12-04T03:30:48.984Z,75.67
2018-12-04T03:33:37.914Z,72.07
2018-12-04T03:36:11.099Z,70.90
2018-12-04T03:38:41.680Z,72.63
2018-12-04T03:41:12.291Z,73.63
2018-12-04T03:43:42.821Z,72.40
2018-12-04T03:46:14.802Z,70.23
2018-12-04T03:48:45.296Z,74.30
2018-12-04T03:51:15.843Z,72.50
2018-12-04T03:53:46.528Z,75.00
2018-12-04T03:56:18.509Z,64.30
2018-12-04T03:58:49.478Z,73.47
2018-12-04T04:01:20.052Z,65.93
2018-12-04T04:03:50.535Z,70.50
2018-12-04T04:06:21.073Z,71.40
2018-12-04T04:08:51.550Z,70.77
2018-12-04T04:11:22.062Z,67.13
2018-12-04T04:13:52.728Z,66.17
2018-12-04T04:16:23.734Z,63.63
2018-12-04T04:18:57.995Z,71.70
2018-12-04T04:21:32.460Z,68.90
2018-12-04T04:24:03.072Z,66.97
2018-12-04T04:26:33.642Z,75.23
2018-12-04T04:29:04.138Z,74.17
2018-12-04T04:31:34.632Z,68.20
2018-12-04T04:34:05.851Z,67.80
2018-12-04T04:36:36.420Z,73.60
2018-12-04T04:39:09.223Z,79.90
2018-12-04T04:41:39.874Z,97.20
2018-12-04T04:44:10.401Z,109.27
2018-12-04T04:46:41.005Z,111.57
2018-12-04T04:49:11.480Z,106.13
2018-12-04T04:51:42.028Z,100.77
2018-12-04T04:54:14.575Z,100.53
2018-12-04T04:56:45.112Z,87.00
2018-12-04T04:59:15.692Z,81.67
2018-12-04T05:01:46.210Z,78.97
2018-12-04T05:04:16.723Z,74.40
2018-12-04T05:06:47.267Z,73.73
2018-12-04T05:09:18.376Z,69.90
2018-12-04T05:11:48.883Z,72.40
2018-12-04T05:14:19.654Z,68.40
2018-12-04T05:16:51.823Z,63.93
2018-12-04T05:19:23.452Z,67.17
2018-12-04T05:21:53.943Z,61.33
2018-12-04T05:24:24.494Z,58.20
2018-12-04T05:26:55.015Z,54.83
2018-12-04T05:29:25.595Z,56.57
2018-12-04T05:31:56.154Z,51.33
2018-12-04T05:34:26.694Z,52.27
2018-12-04T05:36:57.192Z,52.27
2018-12-04T05:39:27.779Z,53.50
2018-12-04T05:41:58.580Z,48.70
2018-12-04T05:44:29.079Z,42.50
2018-12-04T05:46:59.766Z,44.80
2018-12-04T05:49:30.358Z,43.40
2018-12-04T05:52:01.076Z,46.30
2018-12-04T05:54:31.873Z,41.40
2018-12-04T05:57:02.537Z,44.87
2018-12-04T05:59:33.170Z,41.77
2018-12-04T06:02:03.835Z,38.17
2018-12-04T06:04:34.391Z,32.83
2018-12-04T06:07:05.162Z,32.53
2018-12-04T06:09:35.795Z,34.60
2018-12-04T06:12:06.395Z,31.30
2018-12-04T06:14:37.079Z,31.30
2018-12-04T06:17:07.572Z,35.40
2018-12-04T06:19:38.168Z,29.73
2018-12-04T06:22:08.722Z,30.60
2018-12-04T06:24:39.343Z,35.00
2018-12-04T06:27:09.980Z,27.50
2018-12-04T06:29:40.680Z,28.10
2018-12-04T06:32:14.239Z,28.70
2018-12-04T06:34:45.055Z,29.27
2018-12-04T06:37:21.133Z,31.03
2018-12-04T06:39:51.694Z,26.13
2018-12-04T06:42:22.482Z,33.00
2018-12-04T06:44:53.011Z,29.53
2018-12-04T06:47:23.629Z,30.53
2018-12-04T06:49:54.194Z,33.83
2018-12-04T06:52:24.779Z,29.73
2018-12-04T06:54:55.443Z,30.57
2018-12-04T06:57:26.091Z,31.30
2018-12-04T06:59:56.895Z,29.17
2018-12-04T07:02:27.569Z,27.83
2018-12-04T07:04:58.167Z,32.70
2018-12-04T07:07:28.963Z,33.20
2018-12-04T07:09:59.548Z,29.03
2018-12-04T07:12:30.114Z,31.27
2018-12-04T07:15:00.671Z,28.93
2018-12-04T07:17:31.258Z,29.57
2018-12-04T07:20:01.873Z,25.63
2018-12-04T07:22:32.431Z,30.60
2018-12-04T07:25:03.249Z,30.43
2018-12-04T07:27:43.750Z,28.13
2018-12-04T07:30:22.571Z,25.77
2018-12-04T07:33:01.247Z,21.07
2018-12-04T07:35:35.440Z,24.87
2018-12-04T07:38:07.981Z,30.83
2018-12-04T07:40:40.862Z,27.47
2018-12-04T07:46:47.071Z,30.33
2018-12-04T08:05:23.122Z,10.70
2018-12-04T08:07:53.680Z,10.60
2018-12-04T08:10:25.498Z,10.63
2018-12-04T08:12:56.071Z,9.90
2018-12-04T08:15:26.643Z,3.10
2018-12-04T08:17:57.237Z,9.13
2018-12-04T08:20:27.909Z,6.30
2018-12-04T08:22:58.495Z,6.23
2018-12-04T08:25:28.991Z,7.93
2018-12-04T08:28:06.133Z,6.53
2018-12-04T08:30:36.655Z,7.23
2018-12-04T08:33:07.214Z,5.13
2018-12-04T08:35:37.710Z,7.97
2018-12-04T08:38:08.320Z,8.20
2018-12-04T08:40:38.864Z,8.03
2018-12-04T08:43:09.379Z,7.33
2018-12-04T08:45:40.095Z,8.83
2018-12-04T08:48:10.713Z,5.67
2018-12-04T08:50:41.213Z,6.37
2018-12-04T08:53:13.895Z,6.83
2018-12-04T08:55:44.421Z,10.23
2018-12-04T08:58:14.978Z,5.37
2018-12-04T09:00:45.869Z,9.43
2018-12-04T09:03:16.379Z,8.83
2018-12-04T09:05:46.904Z,11.13
2018-12-04T09:08:17.464Z,8.53
2018-12-04T09:10:48.008Z,9.93
2018-12-04T09:13:18.631Z,7.77
2018-12-04T09:15:49.219Z,5.97
2018-12-04T09:18:19.749Z,7.33
2018-12-04T09:20:50.515Z,6.73
2018-12-04T09:23:21.055Z,4.67
2018-12-04T09:25:51.679Z,6.83
2018-12-04T09:28:22.666Z,8.23
2018-12-04T09:30:53.455Z,7.63
2018-12-04T09:33:24.134Z,8.77
2018-12-04T09:35:55.991Z,7.37
2018-12-04T09:38:26.517Z,11.90
2018-12-04T09:40:57.123Z,10.30
2018-12-04T09:43:27.824Z,11.60
2018-12-04T09:45:58.519Z,4.37
2018-12-04T09:48:29.183Z,10.50
2018-12-04T09:50:59.906Z,9.07
2018-12-04T09:53:30.483Z,5.53
2018-12-04T09:56:01.030Z,15.17
2018-12-04T09:58:31.729Z,10.07
2018-12-04T10:01:02.313Z,10.53
2018-12-04T10:03:32.816Z,10.80
2018-12-04T10:06:03.323Z,9.03
2018-12-04T10:08:34.072Z,6.80
2018-12-04T10:11:04.639Z,6.63
2018-12-04T10:13:35.184Z,11.23
2018-12-04T10:16:05.695Z,9.77
2018-12-04T10:18:36.338Z,7.83
2018-12-04T10:21:06.917Z,10.77
2018-12-04T10:23:37.418Z,9.90
2018-12-04T10:26:07.988Z,7.17
2018-12-04T10:28:38.577Z,9.27
2018-12-04T10:31:10.009Z,7.67
2018-12-04T10:33:40.670Z,14.97
2018-12-04T10:36:11.215Z,9.93
2018-12-04T10:38:41.711Z,12.97
2018-12-04T10:41:12.304Z,9.77
2018-12-04T10:43:42.854Z,8.43
2018-12-04T10:46:13.395Z,6.33
2018-12-04T10:48:44.032Z,7.57
2018-12-04T10:51:14.644Z,7.20
2018-12-04T10:53:45.158Z,8.40
2018-12-04T10:56:15.871Z,9.13
2018-12-04T10:58:46.456Z,14.57
2018-12-04T11:01:24.994Z,6.83
2018-12-04T11:03:55.667Z,13.20
2018-12-04T11:06:26.923Z,11.77
2018-12-04T11:08:57.490Z,10.87
2018-12-04T11:11:28.493Z,11.63
2018-12-04T11:13:59.141Z,9.07
2018-12-04T11:16:29.687Z,12.37
2018-12-04T11:19:00.355Z,8.43
2018-12-04T11:21:30.926Z,11.27
2018-12-04T11:24:01.420Z,13.53
2018-12-04T11:26:32.003Z,9.23
2018-12-04T11:29:02.561Z,5.47
2018-12-04T11:31:33.134Z,9.67
2018-12-04T11:34:03.635Z,11.60
2018-12-04T11:36:34.231Z,8.40
2018-12-04T11:39:06.694Z,12.60
2018-12-04T11:41:37.290Z,11.87
2018-12-04T11:44:07.891Z,14.10
2018-12-04T11:46:38.457Z,9.27
2018-12-04T11:49:09.210Z,10.53
2018-12-04T11:51:39.781Z,11.47
2018-12-04T11:54:10.347Z,11.90
2018-12-04T11:56:41.460Z,15.63
2018-12-04T11:59:12.005Z,13.53
2018-12-04T12:01:42.673Z,7.80
2018-12-04T12:04:13.933Z,11.33
2018-12-04T12:06:45.650Z,8.63
2018-12-04T12:09:16.263Z,7.20
2018-12-04T12:11:46.837Z,13.93
2018-12-04T12:14:17.336Z,10.43
2018-12-04T12:16:47.838Z,12.87
2018-12-04T12:19:18.394Z,14.93
2018-12-04T12:21:48.977Z,10.80
2018-12-04T12:24:19.463Z,7.47
2018-12-04T12:26:50.042Z,16.67
2018-12-04T12:29:20.612Z,11.83
2018-12-04T12:31:51.140Z,16.60
2018-12-04T12:34:23.566Z,8.90
2018-12-04T12:36:54.179Z,8.47
2018-12-04T12:39:24.778Z,10.53
2018-12-04T12:41:55.364Z,12.97
2018-12-04T12:44:26.060Z,11.30
2018-12-04T12:46:57.384Z,9.43
2018-12-04T12:49:29.335Z,14.53
2018-12-04T12:52:00.775Z,8.83
2018-12-04T12:54:31.328Z,10.60
2018-12-04T12:57:02.660Z,11.53
2018-12-04T12:59:33.228Z,13.47
2018-12-04T13:02:03.801Z,9.07
2018-12-04T13:04:34.304Z,14.60
2018-12-04T13:07:04.869Z,13.17
2018-12-04T13:09:35.332Z,18.57
2018-12-04T13:12:05.829Z,11.40
2018-12-04T13:14:36.502Z,11.20
2018-12-04T13:17:07.089Z,15.53
2018-12-04T13:19:37.791Z,14.87
2018-12-04T13:22:08.263Z,12.37
2018-12-04T13:24:38.794Z,9.03
2018-12-04T13:27:09.333Z,7.70
2018-12-04T13:29:40.250Z,9.43
2018-12-04T13:32:10.855Z,12.97
2018-12-04T13:34:41.378Z,14.23
2018-12-04T13:37:11.976Z,10.73
2018-12-04T13:39:42.512Z,14.37
2018-12-04T13:42:13.302Z,14.63
2018-12-04T13:44:43.913Z,9.87
2018-12-04T13:47:14.531Z,10.33
2018-12-04T13:49:45.115Z,10.93
2018-12-04T13:52:15.811Z,16.70
2018-12-04T13:54:46.418Z,15.87
2018-12-04T13:57:16.961Z,14.17
2018-12-04T13:59:47.604Z,11.50
2018-12-04T14:02:18.103Z,7.47
2018-12-04T14:04:48.851Z,17.97
2018-12-04T14:07:19.429Z,14.37
2018-12-04T14:09:50.030Z,11.93
2018-12-04T14:12:20.498Z,16.87
2018-12-04T14:14:51.062Z,11.30
2018-12-04T14:17:21.736Z,14.83
2018-12-04T14:19:52.434Z,14.90
2018-12-04T14:22:24.430Z,13.57
2018-12-04T14:24:55.134Z,13.33
2018-12-04T14:27:26.103Z,15.93
2018-12-04T14:29:56.672Z,18.57
2018-12-04T14:32:27.289Z,17.07
2018-12-04T14:34:57.952Z,15.10
2018-12-04T14:37:28.772Z,19.53
2018-12-04T14:39:59.389Z,19.23
2018-12-04T14:42:30.078Z,17.83
2018-12-04T14:45:00.725Z,20.30
2018-12-04T14:47:32.437Z,15.77
2018-12-04T14:50:03.157Z,13.47
2018-12-04T14:52:34.469Z,11.90
2018-12-04T14:55:07.385Z,12.70
2018-12-04T14:57:38.134Z,10.73
2018-12-04T15:00:11.038Z,20.37
2018-12-04T15:02:43.799Z,14.23
2018-12-04T15:05:14.479Z,16.17
2018-12-04T15:07:53.080Z,12.83
2018-12-04T15:10:46.779Z,12.10
2018-12-04T15:13:19.377Z,16.97
2018-12-04T15:15:52.689Z,22.37
2018-12-04T15:18:23.189Z,18.23
2018-12-04T15:20:55.134Z,19.43
2018-12-04T15:23:25.774Z,16.97
2018-12-04T15:25:58.209Z,21.03
2018-12-04T15:28:28.817Z,22.13
2018-12-04T15:30:59.601Z,23.33
2018-12-04T15:33:31.466Z,22.07
2018-12-04T15:36:03.175Z,18.63
2018-12-04T15:38:33.808Z,26.10
2018-12-04T15:41:04.571Z,21.67
2018-12-04T15:43:35.263Z,20.30
2018-12-04T15:46:05.970Z,18.47
2018-12-04T15:48:36.497Z,21.90
2018-12-04T15:51:07.107Z,21.33
2018-12-04T15:53:37.749Z,22.43
2018-12-04T15:56:09.224Z,18.73
2018-12-04T15:58:39.839Z,21.73
2018-12-04T16:01:10.781Z,26.77
2018-12-04T16:03:41.319Z,29.17
2018-12-04T16:06:11.894Z,27.80
2018-12-04T16:08:42.471Z,24.50
2018-12-04T16:11:13.040Z,26.70
2018-12-04T16:13:43.639Z,19.07
2018-12-04T16:16:14.216Z,26.40
2018-12-04T16:18:44.827Z,30.10
2018-12-04T16:21:15.406Z,16.93
2018-12-04T16:23:45.965Z,25.13
2018-12-04T16:26:17.191Z,24.33
2018-12-04T16:28:47.782Z,18.20
2018-12-04T16:31:18.245Z,17.40
2018-12-04T16:33:49.445Z,21.60
2018-12-04T16:36:20.099Z,17.33
2018-12-04T16:38:50.702Z,17.50
2018-12-04T16:41:21.227Z,18.13
2018-12-04T16:43:52.214Z,18.33
2018-12-04T16:46:22.907Z,16.60
2018-12-04T16:48:53.605Z,17.97
2018-12-04T16:51:24.152Z,15.73
2018-12-04T16:53:54.920Z,17.87
2018-12-04T16:56:25.508Z,24.60
2018-12-04T16:58:56.214Z,25.80
2018-12-04T17:01:26.843Z,25.10
2018-12-04T17:03:57.483Z,29.53
2018-12-04T17:06:28.180Z,35.60
2018-12-04T17:08:58.707Z,27.80
2018-12-04T17:13:32.580Z,20.60
2018-12-04T17:16:03.087Z,21.27
2018-12-04T17:18:37.605Z,13.60
2018-12-04T17:21:06.231Z,14.10
2018-12-04T17:23:36.786Z,15.90
2018-12-04T17:26:07.332Z,14.10
2018-12-04T17:28:37.957Z,15.47
2018-12-04T17:31:08.772Z,19.23
2018-12-04T17:33:39.316Z,15.63
2018-12-04T17:36:09.814Z,9.60
2018-12-04T17:38:40.281Z,9.53
2018-12-04T17:41:10.825Z,15.10
2018-12-04T17:43:41.459Z,14.73
2018-12-04T17:46:12.076Z,9.07
2018-12-04T17:48:42.579Z,16.90
2018-12-04T17:51:13.250Z,9.70
2018-12-04T17:53:43.789Z,21.07
2018-12-04T17:56:16.377Z,19.70
2018-12-04T17:58:46.927Z,17.73
2018-12-04T18:01:17.496Z,16.10
2018-12-04T18:03:50.073Z,21.57
2018-12-04T18:06:20.606Z,26.80
2018-12-04T18:08:51.279Z,26.33
2018-12-04T18:11:23.931Z,24.07
2018-12-04T18:13:54.814Z,20.37
2018-12-04T18:16:25.403Z,18.87
2018-12-04T18:18:55.975Z,20.33
2018-12-04T18:21:26.644Z,17.17
2018-12-04T18:23:57.245Z,21.17
2018-12-04T18:26:28.231Z,29.17
2018-12-04T18:28:58.742Z,30.13
2018-12-04T18:31:29.284Z,38.47
2018-12-04T18:33:59.856Z,30.33
2018-12-04T18:36:30.406Z,32.87
2018-12-04T18:39:00.886Z,54.73
2018-12-04T18:41:33.305Z,40.87
2018-12-04T18:44:03.977Z,32.80
2018-12-04T18:46:35.322Z,30.10
2018-12-04T18:49:06.105Z,22.10
2018-12-04T18:51:36.707Z,22.73
2018-12-04T18:54:07.251Z,25.63
2018-12-04T18:56:37.796Z,15.17
2018-12-04T18:59:08.376Z,15.83
2018-12-04T19:01:38.890Z,19.70
2018-12-04T19:04:09.530Z,24.87
2018-12-04T19:06:40.083Z,25.63
2018-12-04T19:09:10.767Z,24.50
2018-12-04T19:11:43.356Z,20.63
2018-12-04T19:14:14.144Z,21.73
2018-12-04T19:16:45.275Z,22.17
2018-12-04T19:19:16.183Z,18.93
2018-12-04T19:21:47.011Z,30.30
2018-12-04T19:24:17.718Z,21.77
2018-12-04T19:26:48.308Z,18.03
2018-12-04T19:29:19.177Z,26.23
2018-12-04T19:31:50.361Z,18.93
2018-12-04T19:34:21.105Z,27.33
2018-12-04T19:36:52.657Z,27.53
2018-12-04T19:39:23.301Z,31.50
2018-12-04T19:41:54.135Z,20.47
2018-12-04T19:44:31.515Z,39.13
2018-12-04T19:47:02.103Z,98.57
2018-12-04T19:49:32.662Z,47.00
2018-12-04T19:52:03.390Z,33.70
2018-12-04T19:54:34.196Z,33.63
2018-12-04T19:57:04.825Z,32.83
2018-12-04T19:59:35.560Z,26.20
2018-12-04T20:02:06.163Z,21.40
2018-12-04T20:04:36.859Z,21.10
2018-12-04T20:07:08.674Z,24.33
2018-12-04T20:09:39.480Z,24.50
2018-12-04T20:12:10.168Z,21.27
2018-12-04T20:14:40.827Z,52.77
2018-12-04T20:17:11.329Z,37.30
2018-12-04T20:19:41.895Z,30.37
2018-12-04T20:22:12.632Z,18.37
2018-12-04T20:24:43.223Z,29.13
2018-12-04T20:27:13.735Z,25.40
2018-12-04T20:29:44.294Z,17.40
2018-12-04T20:32:14.853Z,28.00
2018-12-04T20:34:45.460Z,25.63
2018-12-04T20:37:17.527Z,29.40
2018-12-04T20:39:48.007Z,21.60
2018-12-04T20:42:23.257Z,25.60
2018-12-04T20:44:51.159Z,22.60
2018-12-04T20:47:21.712Z,23.67
2018-12-04T20:49:52.230Z,26.10
2018-12-04T20:52:22.781Z,21.83
2018-12-04T20:54:53.304Z,24.53
2018-12-04T20:57:23.809Z,19.93
2018-12-04T20:59:54.407Z,26.77
2018-12-04T21:02:25.225Z,29.63
2018-12-04T21:04:55.797Z,21.20
2018-12-04T21:07:27.189Z,33.53
2018-12-04T21:09:57.715Z,23.13
2018-12-04T21:12:28.557Z,27.50
2018-12-04T21:14:59.179Z,26.33
2018-12-04T21:17:29.774Z,28.87
2018-12-04T21:20:00.317Z,26.80
2018-12-04T21:22:31.027Z,21.03
2018-12-04T21:25:01.771Z,18.60
2018-12-04T21:27:37.523Z,25.47
2018-12-04T21:30:13.212Z,23.60
2018-12-04T21:32:48.928Z,21.57
2018-12-04T21:35:24.676Z,22.87
2018-12-04T21:38:00.325Z,15.97
2018-12-04T21:40:35.953Z,16.07
2018-12-04T21:43:11.807Z,17.00
2018-12-04T21:45:47.861Z,22.40
2018-12-04T21:48:18.400Z,17.33
2018-12-04T21:50:48.959Z,18.03
2018-12-04T21:53:19.587Z,10.23
2018-12-04T21:55:50.114Z,23.77
2018-12-04T21:58:20.788Z,26.77
2018-12-04T22:00:51.502Z,18.43
2018-12-04T22:03:22.062Z,21.17
2018-12-04T22:05:52.675Z,20.07
2018-12-04T22:08:23.265Z,16.43
2018-12-04T22:10:53.856Z,22.33
2018-12-04T22:13:24.438Z,22.63
2018-12-04T22:15:55.027Z,25.87
2018-12-04T22:18:26.602Z,18.53
2018-12-04T22:20:57.198Z,22.97
2018-12-04T22:23:27.751Z,22.17
2018-12-04T22:25:58.348Z,19.17
2018-12-04T22:28:28.920Z,22.53
2018-12-04T22:30:59.423Z,21.63
2018-12-04T22:33:30.012Z,20.37
2018-12-04T22:36:00.538Z,23.20
2018-12-04T22:38:31.149Z,31.50
2018-12-04T22:41:01.689Z,22.23
2018-12-04T22:43:32.233Z,25.37
2018-12-04T22:46:02.787Z,23.60
2018-12-04T22:48:33.455Z,23.97
2018-12-04T22:51:03.972Z,21.00
2018-12-04T22:53:34.570Z,18.63
2018-12-04T22:56:05.106Z,17.33
2018-12-04T22:58:35.671Z,17.70
2018-12-04T23:01:06.160Z,21.20
2018-12-04T23:03:37.913Z,26.40
2018-12-04T23:06:08.917Z,16.67
2018-12-04T23:08:41.577Z,24.23
2018-12-04T23:11:12.215Z,19.07
2018-12-04T23:13:42.839Z,22.70
2018-12-04T23:16:13.455Z,25.53
2018-12-04T23:18:44.002Z,13.97
2018-12-04T23:21:14.531Z,19.77
2018-12-04T23:23:45.064Z,21.60
2018-12-04T23:26:15.587Z,15.73
2018-12-04T23:28:48.162Z,23.60
2018-12-04T23:31:18.755Z,24.67
2018-12-04T23:33:51.754Z,17.10
2018-12-04T23:36:22.254Z,25.57
2018-12-04T23:38:52.733Z,29.43
2018-12-04T23:41:23.258Z,17.87
2018-12-04T23:43:53.789Z,16.60
2018-12-04T23:46:24.369Z,25.47
2018-12-04T23:48:54.976Z,17.93
2018-12-04T23:51:25.551Z,21.17
2018-12-04T23:53:56.158Z,19.67
2018-12-04T23:56:26.654Z,22.40
2018-12-04T23:58:57.180Z,26.83
